C. Angelo — WCZ5866 — position and weather

sailwx.info

Track history (hours):
 
Tides and Currents Weather Stations Pressure Air Temp Water Temp Dewpoint Dewpoint Depression Visibility Wind Speed Wind Dir Waves Ship Positions

C. Angelo

Owner: G T 110 INC, NEW HAVEN, CT. More information available from US FCC via Universal Licensing System and Coast Guard Vessel Documentation Center.

Last reported at 2016-Aug-12 08:28 UTC. Time now 2016-Aug-28 05:14 UTC.
Position N 41°11' W 072°48'.
Warning: this ship's position is 15 days out of date.

Length 30 m; draft 4 m.

Type: Tug. MMSI: 366988420.

Date/timePositionNaut miles runAvg speedWind from/ knotsBaromVisibWave heightAir tempDewpointWater temp
2016-Aug-12 08:28N 41°11' W 072°48'7 8.1
2016-Aug-12 07:33N 41°10' W 072°38'8 8.1
2016-Aug-12 06:33N 41°10' W 072°27'8 7.6
2016-Aug-12 05:33N 41°13' W 072°17'7 6.5
2016-Aug-12 04:30N 41°14' W 072°09'6 5.7
2016-Aug-12 03:28N 41°14' W 072°01'55 3.9
2016-Aug-11 13:26N 41°38' W 070°55'0 0.0
2016-Aug-11 12:10N 41°38' W 070°55'61 6.3
2016-Aug-11 02:33N 41°14' W 072°09'1211.7
2016-Aug-11 01:33N 41°11' W 072°24'1111.0
2016-Aug-11 00:33N 41°10' W 072°39'  
Track history (hours):
 
Tides and Currents Weather Stations Pressure Air Temp Water Temp Dewpoint Dewpoint Depression Visibility Wind Speed Wind Dir Waves Ship Positions

C. Angelo

Owner: G T 110 INC, NEW HAVEN, CT. More information available from US FCC via Universal Licensing System and Coast Guard Vessel Documentation Center.

Last reported at 2016-Aug-12 08:28 UTC. Time now 2016-Aug-28 05:14 UTC.
Position N 41°11' W 072°48'.
Warning: this ship's position is 15 days out of date.

Length 30 m; draft 4 m.

Type: Tug. MMSI: 366988420.

Date/timePositionNaut miles runAvg speedWind from/ knotsBaromVisibWave heightAir tempDewpointWater temp
2016-Aug-12 08:28N 41°11' W 072°48'7 8.1
2016-Aug-12 07:33N 41°10' W 072°38'8 8.1
2016-Aug-12 06:33N 41°10' W 072°27'8 7.6
2016-Aug-12 05:33N 41°13' W 072°17'7 6.5
2016-Aug-12 04:30N 41°14' W 072°09'6 5.7
2016-Aug-12 03:28N 41°14' W 072°01'55 3.9
2016-Aug-11 13:26N 41°38' W 070°55'0 0.0
2016-Aug-11 12:10N 41°38' W 070°55'61 6.3
2016-Aug-11 02:33N 41°14' W 072°09'1211.7
2016-Aug-11 01:33N 41°11' W 072°24'1111.0
2016-Aug-11 00:33N 41°10' W 072°39'  

Dump ship's entire track history